sensor_id;sensor_type;location;lat;lon;timestamp;pressure;altitude;pressure_sealevel;temperature;humidity
50302;BME280;36550;50.472;19.744;2024-01-30T00:02:09;99854.44;;;-0.70;89.43
50302;BME280;36550;50.472;19.744;2024-01-30T00:04:53;99858.45;;;-0.76;89.33
50302;BME280;36550;50.472;19.744;2024-01-30T00:07:38;99856.84;;;-0.84;89.03
50302;BME280;36550;50.472;19.744;2024-01-30T00:10:22;99855.16;;;-0.87;88.98
50302;BME280;36550;50.472;19.744;2024-01-30T00:13:06;99850.71;;;-0.89;88.89
50302;BME280;36550;50.472;19.744;2024-01-30T00:15:50;99849.38;;;-0.92;88.78
50302;BME280;36550;50.472;19.744;2024-01-30T00:18:36;99853.25;;;-0.96;88.81
50302;BME280;36550;50.472;19.744;2024-01-30T00:21:20;99854.56;;;-0.99;88.96
50302;BME280;36550;50.472;19.744;2024-01-30T00:24:05;99853.19;;;-1.04;88.92
50302;BME280;36550;50.472;19.744;2024-01-30T00:26:49;99852.34;;;-1.09;88.91
50302;BME280;36550;50.472;19.744;2024-01-30T00:29:33;99854.32;;;-1.12;89.15
50302;BME280;36550;50.472;19.744;2024-01-30T00:32:17;99846.42;;;-1.12;89.64
50302;BME280;36550;50.472;19.744;2024-01-30T00:35:05;99848.14;;;-1.01;91.59
50302;BME280;36550;50.472;19.744;2024-01-30T00:37:50;99844.20;;;-0.83;92.27
50302;BME280;36550;50.472;19.744;2024-01-30T00:40:34;99832.13;;;-0.64;93.21
50302;BME280;36550;50.472;19.744;2024-01-30T00:43:18;99828.30;;;-0.43;94.01
50302;BME280;36550;50.472;19.744;2024-01-30T00:46:02;99827.16;;;-0.24;94.13
50302;BME280;36550;50.472;19.744;2024-01-30T00:48:47;99825.67;;;-0.07;93.79
50302;BME280;36550;50.472;19.744;2024-01-30T00:51:31;99824.30;;;0.06;93.61
50302;BME280;36550;50.472;19.744;2024-01-30T00:54:16;99828.48;;;0.16;93.31
50302;BME280;36550;50.472;19.744;2024-01-30T00:57:00;99830.38;;;0.23;93.04
50302;BME280;36550;50.472;19.744;2024-01-30T00:59:44;99825.02;;;0.32;92.89
50302;BME280;36550;50.472;19.744;2024-01-30T01:02:29;99823.55;;;0.42;92.52
50302;BME280;36550;50.472;19.744;2024-01-30T01:05:13;99824.63;;;0.50;92.31
50302;BME280;36550;50.472;19.744;2024-01-30T01:07:57;99822.27;;;0.58;92.09
50302;BME280;36550;50.472;19.744;2024-01-30T01:10:41;99825.13;;;0.64;91.75
50302;BME280;36550;50.472;19.744;2024-01-30T01:13:25;99823.63;;;0.66;91.43
50302;BME280;36550;50.472;19.744;2024-01-30T01:16:10;99825.06;;;0.67;91.32
50302;BME280;36550;50.472;19.744;2024-01-30T01:18:55;99823.97;;;0.66;90.99
50302;BME280;36550;50.472;19.744;2024-01-30T01:21:39;99816.91;;;0.68;90.86
50302;BME280;36550;50.472;19.744;2024-01-30T01:24:24;99811.77;;;0.74;90.55
50302;BME280;36550;50.472;19.744;2024-01-30T01:27:08;99812.10;;;0.81;90.32
50302;BME280;36550;50.472;19.744;2024-01-30T01:29:53;99810.66;;;0.85;90.20
50302;BME280;36550;50.472;19.744;2024-01-30T01:32:37;99805.86;;;0.87;90.13
50302;BME280;36550;50.472;19.744;2024-01-30T01:35:23;99805.61;;;0.88;89.85
50302;BME280;36550;50.472;19.744;2024-01-30T01:38:10;99802.36;;;0.90;89.61
50302;BME280;36550;50.472;19.744;2024-01-30T01:40:54;99805.42;;;0.92;89.20
50302;BME280;36550;50.472;19.744;2024-01-30T01:43:39;99804.27;;;0.94;89.23
50302;BME280;36550;50.472;19.744;2024-01-30T01:46:24;99803.91;;;0.94;89.22
50302;BME280;36550;50.472;19.744;2024-01-30T01:49:09;99800.89;;;0.93;89.39
50302;BME280;36550;50.472;19.744;2024-01-30T01:51:55;99805.30;;;0.92;89.33
50302;BME280;36550;50.472;19.744;2024-01-30T01:54:43;99798.59;;;0.90;89.31
50302;BME280;36550;50.472;19.744;2024-01-30T01:57:27;99792.87;;;0.90;89.28
50302;BME280;36550;50.472;19.744;2024-01-30T02:00:12;99793.33;;;0.91;89.11
50302;BME280;36550;50.472;19.744;2024-01-30T02:02:58;99795.11;;;0.90;89.13
50302;BME280;36550;50.472;19.744;2024-01-30T02:05:43;99794.88;;;0.89;89.08
50302;BME280;36550;50.472;19.744;2024-01-30T02:08:28;99792.58;;;0.83;89.02
50302;BME280;36550;50.472;19.744;2024-01-30T02:11:13;99786.50;;;0.78;89.15
50302;BME280;36550;50.472;19.744;2024-01-30T02:14:02;99784.46;;;0.71;89.03
50302;BME280;36550;50.472;19.744;2024-01-30T02:16:47;99786.29;;;0.64;88.85
50302;BME280;36550;50.472;19.744;2024-01-30T02:19:31;99782.60;;;0.56;88.78
50302;BME280;36550;50.472;19.744;2024-01-30T02:22:16;99782.31;;;0.53;88.81
50302;BME280;36550;50.472;19.744;2024-01-30T02:25:00;99781.94;;;0.53;88.67
50302;BME280;36550;50.472;19.744;2024-01-30T02:27:44;99779.63;;;0.54;88.73
50302;BME280;36550;50.472;19.744;2024-01-30T02:30:29;99776.49;;;0.55;88.69
50302;BME280;36550;50.472;19.744;2024-01-30T02:33:13;99770.64;;;0.54;88.72
50302;BME280;36550;50.472;19.744;2024-01-30T02:35:57;99768.73;;;0.53;88.53
50302;BME280;36550;50.472;19.744;2024-01-30T02:38:42;99768.17;;;0.53;88.47
50302;BME280;36550;50.472;19.744;2024-01-30T02:41:26;99768.98;;;0.54;88.52
50302;BME280;36550;50.472;19.744;2024-01-30T02:44:10;99776.44;;;0.53;88.42
50302;BME280;36550;50.472;19.744;2024-01-30T02:46:55;99777.39;;;0.50;88.20
50302;BME280;36550;50.472;19.744;2024-01-30T02:49:39;99773.44;;;0.46;87.73
50302;BME280;36550;50.472;19.744;2024-01-30T02:52:23;99772.27;;;0.44;87.63
50302;BME280;36550;50.472;19.744;2024-01-30T02:55:08;99765.71;;;0.43;87.74
50302;BME280;36550;50.472;19.744;2024-01-30T02:57:52;99762.35;;;0.42;87.42
50302;BME280;36550;50.472;19.744;2024-01-30T03:00:36;99767.95;;;0.41;87.33
50302;BME280;36550;50.472;19.744;2024-01-30T03:03:20;99763.23;;;0.40;87.06
50302;BME280;36550;50.472;19.744;2024-01-30T03:06:05;99761.34;;;0.40;86.68
50302;BME280;36550;50.472;19.744;2024-01-30T03:08:49;99757.90;;;0.38;86.78
50302;BME280;36550;50.472;19.744;2024-01-30T03:11:33;99760.52;;;0.37;86.11
50302;BME280;36550;50.472;19.744;2024-01-30T03:14:18;99762.61;;;0.35;86.75
50302;BME280;36550;50.472;19.744;2024-01-30T03:17:02;99767.67;;;0.28;86.60
50302;BME280;36550;50.472;19.744;2024-01-30T03:19:46;99769.96;;;0.18;86.48
50302;BME280;36550;50.472;19.744;2024-01-30T03:22:30;99774.45;;;0.10;86.32
50302;BME280;36550;50.472;19.744;2024-01-30T03:25:14;99772.34;;;0.02;86.45
50302;BME280;36550;50.472;19.744;2024-01-30T03:27:58;99769.52;;;-0.06;86.52
50302;BME280;36550;50.472;19.744;2024-01-30T03:30:43;99768.65;;;-0.13;86.38
50302;BME280;36550;50.472;19.744;2024-01-30T03:33:27;99769.94;;;-0.16;86.31
50302;BME280;36550;50.472;19.744;2024-01-30T03:36:12;99768.62;;;-0.21;86.22
50302;BME280;36550;50.472;19.744;2024-01-30T03:38:56;99764.75;;;-0.27;86.20
50302;BME280;36550;50.472;19.744;2024-01-30T03:41:43;99763.98;;;-0.32;86.16
50302;BME280;36550;50.472;19.744;2024-01-30T03:44:28;99765.65;;;-0.38;86.17
50302;BME280;36550;50.472;19.744;2024-01-30T03:47:12;99762.77;;;-0.45;86.25
50302;BME280;36550;50.472;19.744;2024-01-30T03:49:57;99764.25;;;-0.53;86.41
50302;BME280;36550;50.472;19.744;2024-01-30T03:52:41;99759.06;;;-0.61;86.32
50302;BME280;36550;50.472;19.744;2024-01-30T03:55:25;99752.38;;;-0.70;86.37
50302;BME280;36550;50.472;19.744;2024-01-30T03:58:09;99751.11;;;-0.79;86.38
50302;BME280;36550;50.472;19.744;2024-01-30T04:00:53;99752.95;;;-0.87;86.24
50302;BME280;36550;50.472;19.744;2024-01-30T04:03:38;99750.69;;;-0.96;86.26
50302;BME280;36550;50.472;19.744;2024-01-30T04:06:22;99748.52;;;-1.05;86.09
50302;BME280;36550;50.472;19.744;2024-01-30T04:09:06;99746.70;;;-1.13;86.18
50302;BME280;36550;50.472;19.744;2024-01-30T04:11:50;99746.13;;;-1.15;86.17
50302;BME280;36550;50.472;19.744;2024-01-30T04:14:34;99749.07;;;-1.15;86.24
50302;BME280;36550;50.472;19.744;2024-01-30T04:17:19;99749.67;;;-1.14;86.28
50302;BME280;36550;50.472;19.744;2024-01-30T04:20:04;99750.96;;;-1.13;86.50
50302;BME280;36550;50.472;19.744;2024-01-30T04:22:49;99756.19;;;-1.16;86.47
50302;BME280;36550;50.472;19.744;2024-01-30T04:25:33;99761.45;;;-1.18;86.61
50302;BME280;36550;50.472;19.744;2024-01-30T04:28:18;99761.54;;;-1.21;86.61
50302;BME280;36550;50.472;19.744;2024-01-30T04:31:02;99763.27;;;-1.21;86.73
50302;BME280;36550;50.472;19.744;2024-01-30T04:33:46;99761.50;;;-1.19;86.67
50302;BME280;36550;50.472;19.744;2024-01-30T04:36:30;99763.85;;;-1.15;86.72
50302;BME280;36550;50.472;19.744;2024-01-30T04:39:14;99765.39;;;-1.13;86.64
50302;BME280;36550;50.472;19.744;2024-01-30T04:41:59;99750.30;;;-1.11;86.73
50302;BME280;36550;50.472;19.744;2024-01-30T04:44:43;99749.94;;;-1.06;87.02
50302;BME280;36550;50.472;19.744;2024-01-30T04:47:28;99752.96;;;-1.01;87.46
50302;BME280;36550;50.472;19.744;2024-01-30T04:50:11;99755.66;;;-0.95;87.67
50302;BME280;36550;50.472;19.744;2024-01-30T04:52:55;99752.09;;;-0.91;87.80
50302;BME280;36550;50.472;19.744;2024-01-30T04:55:41;99749.86;;;-0.89;87.74
50302;BME280;36550;50.472;19.744;2024-01-30T04:58:24;99750.05;;;-0.89;87.66
50302;BME280;36550;50.472;19.744;2024-01-30T05:01:09;99746.82;;;-0.90;87.57
50302;BME280;36550;50.472;19.744;2024-01-30T05:03:53;99749.44;;;-0.88;87.23
50302;BME280;36550;50.472;19.744;2024-01-30T05:06:37;99753.27;;;-0.89;86.98
50302;BME280;36550;50.472;19.744;2024-01-30T05:09:22;99753.23;;;-0.90;86.80
50302;BME280;36550;50.472;19.744;2024-01-30T05:12:07;99755.77;;;-0.92;86.68
50302;BME280;36550;50.472;19.744;2024-01-30T05:14:51;99753.95;;;-0.95;86.56
50302;BME280;36550;50.472;19.744;2024-01-30T05:17:35;99755.23;;;-1.01;86.54
50302;BME280;36550;50.472;19.744;2024-01-30T05:20:19;99754.10;;;-1.07;86.68
50302;BME280;36550;50.472;19.744;2024-01-30T05:23:04;99752.34;;;-1.13;86.69
50302;BME280;36550;50.472;19.744;2024-01-30T05:25:48;99758.80;;;-1.19;86.64
50302;BME280;36550;50.472;19.744;2024-01-30T05:28:32;99761.18;;;-1.25;86.56
50302;BME280;36550;50.472;19.744;2024-01-30T05:31:17;99760.98;;;-1.32;86.41
50302;BME280;36550;50.472;19.744;2024-01-30T05:34:01;99760.29;;;-1.39;86.42
50302;BME280;36550;50.472;19.744;2024-01-30T05:36:45;99761.66;;;-1.46;86.40
50302;BME280;36550;50.472;19.744;2024-01-30T05:39:29;99761.55;;;-1.53;86.35
50302;BME280;36550;50.472;19.744;2024-01-30T05:42:16;99765.73;;;-1.59;86.23
50302;BME280;36550;50.472;19.744;2024-01-30T05:45:00;99768.24;;;-1.61;86.12
50302;BME280;36550;50.472;19.744;2024-01-30T05:47:45;99770.61;;;-1.63;86.07
50302;BME280;36550;50.472;19.744;2024-01-30T05:50:29;99770.93;;;-1.65;86.05
50302;BME280;36550;50.472;19.744;2024-01-30T05:53:13;99773.63;;;-1.66;86.06
50302;BME280;36550;50.472;19.744;2024-01-30T05:55:57;99771.90;;;-1.66;86.08
50302;BME280;36550;50.472;19.744;2024-01-30T05:58:41;99773.73;;;-1.65;86.18
50302;BME280;36550;50.472;19.744;2024-01-30T06:01:27;99774.73;;;-1.65;86.32
50302;BME280;36550;50.472;19.744;2024-01-30T06:04:10;99773.42;;;-1.66;86.41
50302;BME280;36550;50.472;19.744;2024-01-30T06:06:55;99778.88;;;-1.67;86.47
50302;BME280;36550;50.472;19.744;2024-01-30T06:09:39;99780.70;;;-1.67;86.63
50302;BME280;36550;50.472;19.744;2024-01-30T06:12:24;99782.67;;;-1.65;86.75
50302;BME280;36550;50.472;19.744;2024-01-30T06:15:10;99781.41;;;-1.65;86.85
50302;BME280;36550;50.472;19.744;2024-01-30T06:17:56;99780.88;;;-1.64;86.76
50302;BME280;36550;50.472;19.744;2024-01-30T06:20:40;99778.34;;;-1.63;86.58
50302;BME280;36550;50.472;19.744;2024-01-30T06:23:25;99781.93;;;-1.63;86.56
50302;BME280;36550;50.472;19.744;2024-01-30T06:26:09;99784.80;;;-1.62;86.45
50302;BME280;36550;50.472;19.744;2024-01-30T06:28:54;99781.84;;;-1.61;86.45
50302;BME280;36550;50.472;19.744;2024-01-30T06:31:41;99782.30;;;-1.61;86.37
50302;BME280;36550;50.472;19.744;2024-01-30T06:34:25;99787.41;;;-1.60;86.24
50302;BME280;36550;50.472;19.744;2024-01-30T06:37:10;99788.17;;;-1.61;86.32
50302;BME280;36550;50.472;19.744;2024-01-30T06:39:54;99787.81;;;-1.63;86.45
50302;BME280;36550;50.472;19.744;2024-01-30T06:42:38;99787.95;;;-1.67;86.59
50302;BME280;36550;50.472;19.744;2024-01-30T06:45:22;99783.64;;;-1.71;86.66
50302;BME280;36550;50.472;19.744;2024-01-30T06:48:07;99783.88;;;-1.75;86.70
50302;BME280;36550;50.472;19.744;2024-01-30T06:50:57;99785.20;;;-1.79;86.80
50302;BME280;36550;50.472;19.744;2024-01-30T06:53:42;99785.19;;;-1.81;86.90
50302;BME280;36550;50.472;19.744;2024-01-30T06:56:28;99785.85;;;-1.79;86.81
50302;BME280;36550;50.472;19.744;2024-01-30T06:59:11;99784.55;;;-1.75;86.76
50302;BME280;36550;50.472;19.744;2024-01-30T07:01:56;99786.73;;;-1.74;86.62
50302;BME280;36550;50.472;19.744;2024-01-30T07:04:40;99783.49;;;-1.72;86.72
50302;BME280;36550;50.472;19.744;2024-01-30T07:07:25;99784.48;;;-1.69;86.74
50302;BME280;36550;50.472;19.744;2024-01-30T07:10:10;99791.50;;;-1.64;86.86
50302;BME280;36550;50.472;19.744;2024-01-30T07:12:54;99792.75;;;-1.62;87.00
50302;BME280;36550;50.472;19.744;2024-01-30T07:15:39;99795.86;;;-1.63;87.08
50302;BME280;36550;50.472;19.744;2024-01-30T07:18:23;99799.26;;;-1.62;87.22
50302;BME280;36550;50.472;19.744;2024-01-30T07:21:07;99797.26;;;-1.61;87.32
50302;BME280;36550;50.472;19.744;2024-01-30T07:23:51;99799.95;;;-1.60;87.26
50302;BME280;36550;50.472;19.744;2024-01-30T07:26:35;99798.70;;;-1.59;87.32
50302;BME280;36550;50.472;19.744;2024-01-30T07:29:19;99799.94;;;-1.58;87.49
50302;BME280;36550;50.472;19.744;2024-01-30T07:32:03;99798.11;;;-1.54;87.48
50302;BME280;36550;50.472;19.744;2024-01-30T07:34:47;99798.38;;;-1.48;87.54
50302;BME280;36550;50.472;19.744;2024-01-30T07:37:31;99795.78;;;-1.38;87.49
50302;BME280;36550;50.472;19.744;2024-01-30T07:40:16;99799.17;;;-1.28;87.65
50302;BME280;36550;50.472;19.744;2024-01-30T07:43:00;99797.39;;;-1.18;87.61
50302;BME280;36550;50.472;19.744;2024-01-30T07:45:45;99794.04;;;-1.08;87.71
50302;BME280;36550;50.472;19.744;2024-01-30T07:48:28;99796.44;;;-0.96;87.84
50302;BME280;36550;50.472;19.744;2024-01-30T07:51:12;99785.48;;;-0.86;87.78
50302;BME280;36550;50.472;19.744;2024-01-30T07:53:57;99791.76;;;-0.76;87.85
50302;BME280;36550;50.472;19.744;2024-01-30T07:56:41;99794.69;;;-0.67;87.99
50302;BME280;36550;50.472;19.744;2024-01-30T07:59:25;99797.15;;;-0.58;88.16
50302;BME280;36550;50.472;19.744;2024-01-30T08:02:11;99795.59;;;-0.51;88.23
50302;BME280;36550;50.472;19.744;2024-01-30T08:04:56;99786.55;;;-0.46;88.29
50302;BME280;36550;50.472;19.744;2024-01-30T08:07:43;99793.77;;;-0.39;88.42
50302;BME280;36550;50.472;19.744;2024-01-30T08:10:28;99799.63;;;-0.32;88.53
50302;BME280;36550;50.472;19.744;2024-01-30T08:13:12;99800.03;;;-0.24;88.54
50302;BME280;36550;50.472;19.744;2024-01-30T08:15:57;99805.52;;;-0.11;88.33
50302;BME280;36550;50.472;19.744;2024-01-30T08:18:41;99807.25;;;0.00;88.25
50302;BME280;36550;50.472;19.744;2024-01-30T08:21:25;99804.64;;;0.11;88.17
50302;BME280;36550;50.472;19.744;2024-01-30T08:24:09;99809.56;;;0.23;88.22
50302;BME280;36550;50.472;19.744;2024-01-30T08:26:53;99809.42;;;0.31;88.21
50302;BME280;36550;50.472;19.744;2024-01-30T08:29:38;99809.70;;;0.38;88.34
50302;BME280;36550;50.472;19.744;2024-01-30T08:32:23;99815.02;;;0.45;88.34
50302;BME280;36550;50.472;19.744;2024-01-30T08:35:07;99813.65;;;0.51;88.28
50302;BME280;36550;50.472;19.744;2024-01-30T08:37:52;99811.80;;;0.57;88.29
50302;BME280;36550;50.472;19.744;2024-01-30T08:40:38;99810.49;;;0.63;88.26
50302;BME280;36550;50.472;19.744;2024-01-30T08:43:22;99808.84;;;0.68;88.22
50302;BME280;36550;50.472;19.744;2024-01-30T08:46:07;99813.01;;;0.74;88.14
50302;BME280;36550;50.472;19.744;2024-01-30T08:48:51;99813.49;;;0.81;87.89
50302;BME280;36550;50.472;19.744;2024-01-30T08:51:35;99816.19;;;0.91;87.09
50302;BME280;36550;50.472;19.744;2024-01-30T08:54:20;99813.30;;;1.00;87.29
50302;BME280;36550;50.472;19.744;2024-01-30T08:57:04;99818.31;;;1.08;87.24
50302;BME280;36550;50.472;19.744;2024-01-30T08:59:48;99822.58;;;1.16;87.47
50302;BME280;36550;50.472;19.744;2024-01-30T09:02:33;99818.75;;;1.23;87.63
50302;BME280;36550;50.472;19.744;2024-01-30T09:05:18;99815.03;;;1.30;87.73
50302;BME280;36550;50.472;19.744;2024-01-30T09:08:02;99814.67;;;1.37;87.70
50302;BME280;36550;50.472;19.744;2024-01-30T09:10:46;99812.52;;;1.44;87.50
50302;BME280;36550;50.472;19.744;2024-01-30T09:13:31;99810.18;;;1.55;87.29
50302;BME280;36550;50.472;19.744;2024-01-30T09:16:15;99808.26;;;1.67;87.10
50302;BME280;36550;50.472;19.744;2024-01-30T09:19:00;99801.77;;;1.79;87.24
50302;BME280;36550;50.472;19.744;2024-01-30T09:21:44;99802.93;;;1.87;87.04
50302;BME280;36550;50.472;19.744;2024-01-30T09:24:29;99801.48;;;1.96;87.00
50302;BME280;36550;50.472;19.744;2024-01-30T09:27:13;99800.09;;;2.04;86.97
50302;BME280;36550;50.472;19.744;2024-01-30T09:29:57;99797.84;;;2.12;86.96
50302;BME280;36550;50.472;19.744;2024-01-30T09:32:41;99794.56;;;2.21;86.80
50302;BME280;36550;50.472;19.744;2024-01-30T09:35:25;99795.09;;;2.33;86.64
50302;BME280;36550;50.472;19.744;2024-01-30T09:38:09;99794.20;;;2.41;86.48
50302;BME280;36550;50.472;19.744;2024-01-30T09:40:54;99793.58;;;2.48;86.38
50302;BME280;36550;50.472;19.744;2024-01-30T09:43:47;99792.63;;;2.55;86.35
50302;BME280;36550;50.472;19.744;2024-01-30T09:46:33;99789.69;;;2.62;86.31
50302;BME280;36550;50.472;19.744;2024-01-30T09:49:19;99792.30;;;2.70;86.03
50302;BME280;36550;50.472;19.744;2024-01-30T09:52:05;99789.54;;;2.76;86.11
50302;BME280;36550;50.472;19.744;2024-01-30T09:54:51;99783.92;;;2.81;86.08
50302;BME280;36550;50.472;19.744;2024-01-30T09:57:36;99783.29;;;2.86;86.13
50302;BME280;36550;50.472;19.744;2024-01-30T10:00:21;99781.15;;;2.88;86.07
50302;BME280;36550;50.472;19.744;2024-01-30T10:03:10;99781.85;;;2.92;85.98
50302;BME280;36550;50.472;19.744;2024-01-30T10:05:55;99782.30;;;2.96;85.99
50302;BME280;36550;50.472;19.744;2024-01-30T10:08:39;99776.41;;;3.04;85.78
50302;BME280;36550;50.472;19.744;2024-01-30T10:11:24;99769.25;;;3.13;85.65
50302;BME280;36550;50.472;19.744;2024-01-30T10:14:08;99765.75;;;3.18;85.48
50302;BME280;36550;50.472;19.744;2024-01-30T10:16:52;99765.17;;;3.26;85.44
50302;BME280;36550;50.472;19.744;2024-01-30T10:19:38;99760.00;;;3.36;85.20
50302;BME280;36550;50.472;19.744;2024-01-30T10:22:22;99756.80;;;3.46;84.78
50302;BME280;36550;50.472;19.744;2024-01-30T10:25:07;99755.31;;;3.54;84.57
50302;BME280;36550;50.472;19.744;2024-01-30T10:27:55;99753.04;;;3.60;84.20
50302;BME280;36550;50.472;19.744;2024-01-30T10:30:39;99747.92;;;3.64;83.43
50302;BME280;36550;50.472;19.744;2024-01-30T10:33:23;99745.67;;;3.68;83.38
50302;BME280;36550;50.472;19.744;2024-01-30T10:36:08;99738.60;;;3.73;82.54
50302;BME280;36550;50.472;19.744;2024-01-30T10:38:55;99734.56;;;3.79;82.17
50302;BME280;36550;50.472;19.744;2024-01-30T10:41:43;99732.14;;;3.83;81.93
50302;BME280;36550;50.472;19.744;2024-01-30T10:44:30;99733.12;;;3.87;81.61
50302;BME280;36550;50.472;19.744;2024-01-30T10:47:21;99729.83;;;3.93;81.42
50302;BME280;36550;50.472;19.744;2024-01-30T10:50:09;99725.77;;;3.99;81.26
50302;BME280;36550;50.472;19.744;2024-01-30T10:52:55;99723.30;;;4.08;81.24
50302;BME280;36550;50.472;19.744;2024-01-30T10:55:40;99719.92;;;4.16;81.12
50302;BME280;36550;50.472;19.744;2024-01-30T10:58:25;99717.59;;;4.22;81.11
50302;BME280;36550;50.472;19.744;2024-01-30T11:01:11;99706.89;;;4.27;81.14
50302;BME280;36550;50.472;19.744;2024-01-30T11:03:56;99706.34;;;4.33;80.96
50302;BME280;36550;50.472;19.744;2024-01-30T11:06:43;99705.23;;;4.39;80.69
50302;BME280;36550;50.472;19.744;2024-01-30T11:09:29;99699.14;;;4.46;80.03
50302;BME280;36550;50.472;19.744;2024-01-30T11:12:13;99701.27;;;4.52;79.35
50302;BME280;36550;50.472;19.744;2024-01-30T11:15:05;99691.67;;;4.57;79.22
50302;BME280;36550;50.472;19.744;2024-01-30T11:17:53;99694.92;;;4.60;78.67
50302;BME280;36550;50.472;19.744;2024-01-30T11:20:37;99692.14;;;4.64;78.55
50302;BME280;36550;50.472;19.744;2024-01-30T11:23:23;99690.88;;;4.66;77.90
50302;BME280;36550;50.472;19.744;2024-01-30T11:26:11;99689.02;;;4.68;77.92
50302;BME280;36550;50.472;19.744;2024-01-30T11:28:55;99685.67;;;4.70;77.41
50302;BME280;36550;50.472;19.744;2024-01-30T11:31:39;99684.73;;;4.74;76.84
50302;BME280;36550;50.472;19.744;2024-01-30T11:34:23;99685.16;;;4.76;77.02
50302;BME280;36550;50.472;19.744;2024-01-30T11:37:11;99683.80;;;4.79;77.29
50302;BME280;36550;50.472;19.744;2024-01-30T11:39:56;99680.34;;;4.83;76.70
50302;BME280;36550;50.472;19.744;2024-01-30T11:42:41;99678.70;;;4.86;77.18
50302;BME280;36550;50.472;19.744;2024-01-30T11:45:27;99676.77;;;4.88;77.32
50302;BME280;36550;50.472;19.744;2024-01-30T11:48:12;99674.80;;;4.90;77.18
50302;BME280;36550;50.472;19.744;2024-01-30T11:50:55;99674.71;;;4.93;77.17
50302;BME280;36550;50.472;19.744;2024-01-30T11:53:41;99670.61;;;4.95;77.31
50302;BME280;36550;50.472;19.744;2024-01-30T11:56:25;99670.45;;;4.97;77.43
50302;BME280;36550;50.472;19.744;2024-01-30T11:59:11;99664.11;;;4.98;76.46
50302;BME280;36550;50.472;19.744;2024-01-30T12:01:55;99661.61;;;5.00;76.14
50302;BME280;36550;50.472;19.744;2024-01-30T12:04:39;99655.20;;;5.05;75.69
50302;BME280;36550;50.472;19.744;2024-01-30T12:07:23;99655.14;;;5.11;74.55
50302;BME280;36550;50.472;19.744;2024-01-30T12:10:08;99653.46;;;5.15;75.47
50302;BME280;36550;50.472;19.744;2024-01-30T12:12:53;99648.83;;;5.20;75.82
50302;BME280;36550;50.472;19.744;2024-01-30T12:15:38;99650.39;;;5.23;75.77
50302;BME280;36550;50.472;19.744;2024-01-30T12:18:23;99651.44;;;5.27;76.19
50302;BME280;36550;50.472;19.744;2024-01-30T12:21:07;99648.75;;;5.29;75.88
50302;BME280;36550;50.472;19.744;2024-01-30T12:23:52;99648.75;;;5.32;75.66
50302;BME280;36550;50.472;19.744;2024-01-30T12:26:36;99646.17;;;5.36;75.82
50302;BME280;36550;50.472;19.744;2024-01-30T12:29:20;99645.77;;;5.41;75.61
50302;BME280;36550;50.472;19.744;2024-01-30T12:32:05;99644.68;;;5.45;75.67
50302;BME280;36550;50.472;19.744;2024-01-30T12:34:49;99641.78;;;5.48;75.43
50302;BME280;36550;50.472;19.744;2024-01-30T12:37:34;99642.48;;;5.51;75.40
50302;BME280;36550;50.472;19.744;2024-01-30T12:40:18;99639.13;;;5.53;74.58
50302;BME280;36550;50.472;19.744;2024-01-30T12:43:03;99636.20;;;5.55;74.36
50302;BME280;36550;50.472;19.744;2024-01-30T12:45:47;99634.49;;;5.56;73.21
50302;BME280;36550;50.472;19.744;2024-01-30T12:48:31;99632.05;;;5.57;71.05
50302;BME280;36550;50.472;19.744;2024-01-30T12:51:16;99632.22;;;5.59;70.16
50302;BME280;36550;50.472;19.744;2024-01-30T12:54:05;99627.89;;;5.63;70.12
50302;BME280;36550;50.472;19.744;2024-01-30T12:56:49;99623.50;;;5.65;68.91
50302;BME280;36550;50.472;19.744;2024-01-30T12:59:33;99617.96;;;5.66;67.50
50302;BME280;36550;50.472;19.744;2024-01-30T13:02:18;99613.84;;;5.67;67.37
50302;BME280;36550;50.472;19.744;2024-01-30T13:05:03;99616.04;;;5.68;66.90
50302;BME280;36550;50.472;19.744;2024-01-30T13:07:48;99614.73;;;5.69;67.00
50302;BME280;36550;50.472;19.744;2024-01-30T13:10:32;99620.55;;;5.70;67.59
50302;BME280;36550;50.472;19.744;2024-01-30T13:13:16;99623.17;;;5.71;67.45
50302;BME280;36550;50.472;19.744;2024-01-30T13:16:00;99623.41;;;5.72;67.52
50302;BME280;36550;50.472;19.744;2024-01-30T13:18:44;99620.25;;;5.72;67.43
50302;BME280;36550;50.472;19.744;2024-01-30T13:21:28;99618.75;;;5.74;67.37
50302;BME280;36550;50.472;19.744;2024-01-30T13:24:13;99618.39;;;5.75;67.24
50302;BME280;36550;50.472;19.744;2024-01-30T13:26:57;99616.55;;;5.76;66.42
50302;BME280;36550;50.472;19.744;2024-01-30T13:29:41;99621.59;;;5.78;65.84
50302;BME280;36550;50.472;19.744;2024-01-30T13:32:26;99628.20;;;5.79;66.75
50302;BME280;36550;50.472;19.744;2024-01-30T13:35:10;99627.98;;;5.80;66.98
50302;BME280;36550;50.472;19.744;2024-01-30T13:37:54;99627.90;;;5.81;66.82
50302;BME280;36550;50.472;19.744;2024-01-30T13:40:39;99624.95;;;5.81;66.91
50302;BME280;36550;50.472;19.744;2024-01-30T13:43:23;99622.65;;;5.81;67.25
50302;BME280;36550;50.472;19.744;2024-01-30T13:46:08;99622.79;;;5.80;67.12
50302;BME280;36550;50.472;19.744;2024-01-30T13:48:52;99616.48;;;5.79;67.09
50302;BME280;36550;50.472;19.744;2024-01-30T13:51:36;99619.79;;;5.78;67.17
50302;BME280;36550;50.472;19.744;2024-01-30T13:54:20;99620.28;;;5.79;67.29
50302;BME280;36550;50.472;19.744;2024-01-30T13:57:04;99615.48;;;5.78;67.11
50302;BME280;36550;50.472;19.744;2024-01-30T13:59:49;99614.77;;;5.77;67.55
50302;BME280;36550;50.472;19.744;2024-01-30T14:02:33;99608.66;;;5.74;67.43
50302;BME280;36550;50.472;19.744;2024-01-30T14:05:18;99609.17;;;5.70;67.22
50302;BME280;36550;50.472;19.744;2024-01-30T14:08:03;99608.02;;;5.67;67.50
50302;BME280;36550;50.472;19.744;2024-01-30T14:10:48;99608.40;;;5.63;67.64
50302;BME280;36550;50.472;19.744;2024-01-30T14:13:32;99605.99;;;5.60;67.92
50302;BME280;36550;50.472;19.744;2024-01-30T14:16:16;99608.81;;;5.57;67.39
50302;BME280;36550;50.472;19.744;2024-01-30T14:19:00;99606.27;;;5.57;67.03
50302;BME280;36550;50.472;19.744;2024-01-30T14:21:44;99608.04;;;5.56;66.94
50302;BME280;36550;50.472;19.744;2024-01-30T14:24:28;99610.41;;;5.55;67.04
50302;BME280;36550;50.472;19.744;2024-01-30T14:27:12;99605.40;;;5.54;67.03